Time;durP1;ratioP1;P1;durP2;ratioP2;P2;SDS_P1;SDS_P2;PMS_P1;PMS_P2;Temp;Humidity;BMP_temperature;BMP_pressure;BME280_temperature;BME280_humidity;BME280_pressure;Samples;Min_cycle;Max_cycle;Signal;HPM_P1;HPM_P2
2023/03/28 00:00:10;;;;;;;37.25;34.33;;;;;;;7.68;100.00;99484.25;5002043;28;20054;-81
2023/03/28 00:02:37;;;;;;;37.45;34.63;;;;;;;7.11;100.00;99479.03;4995620;28;20459;-81
2023/03/28 00:05:06;;;;;;;40.28;37.22;;;;;;;7.36;100.00;99476.41;5005514;28;20081;-81
2023/03/28 00:07:33;;;;;;;50.85;47.33;;;;;;;7.04;100.00;99472.97;5001522;28;20050;-81
2023/03/28 00:10:00;;;;;;;51.63;47.58;;;;;;;6.62;100.00;99481.28;5000964;28;20045;-81
2023/03/28 00:12:28;;;;;;;45.95;42.05;;;;;;;6.63;100.00;99474.22;5004268;28;20128;-81
2023/03/28 00:14:56;;;;;;;54.33;49.83;;;;;;;7.80;100.00;99490.44;5000098;28;20054;-81
2023/03/28 00:17:23;;;;;;;46.13;42.25;;;;;;;6.62;100.00;99493.69;5002997;28;20046;-81
2023/03/28 00:19:52;;;;;;;51.88;46.22;;;;;;;6.95;100.00;99492.72;5003869;28;20515;-81
2023/03/28 00:22:19;;;;;;;50.65;47.25;;;;;;;7.18;100.00;99502.75;4999605;28;20046;-81
2023/03/28 00:24:47;;;;;;;45.53;41.67;;;;;;;7.80;100.00;99515.06;5005067;28;20046;-81
2023/03/28 00:27:14;;;;;;;46.33;43.03;;;;;;;6.68;100.00;99507.88;5005096;28;20140;-81
2023/03/28 00:29:42;;;;;;;46.53;43.53;;;;;;;7.28;100.00;99511.00;5006357;28;20129;-81
2023/03/28 00:32:09;;;;;;;49.85;46.38;;;;;;;6.26;100.00;99518.75;5007221;28;20392;-81
2023/03/28 00:34:45;;;;;;;50.33;46.35;;;;;;;6.38;100.00;99511.84;5004226;28;20073;-81
2023/03/28 00:37:16;;;;;;;55.45;50.85;;;;;;;6.37;100.00;99518.13;5000888;28;20104;-81
2023/03/28 00:39:48;;;;;;;52.30;48.13;;;;;;;6.22;100.00;99520.19;5001804;28;20045;-81
2023/03/28 00:42:17;;;;;;;46.70;43.60;;;;;;;6.37;100.00;99538.41;4993278;28;20058;-81
2023/03/28 00:44:48;;;;;;;51.42;47.83;;;;;;;7.88;100.00;99526.41;5002506;28;20100;-81
2023/03/28 00:47:25;;;;;;;47.42;44.38;;;;;;;6.92;100.00;99522.97;5002317;28;20495;-81
2023/03/28 00:49:55;;;;;;;53.25;49.15;;;;;;;7.62;100.00;99519.47;5001202;28;20108;-81
2023/03/28 00:52:24;;;;;;;41.72;39.13;;;;;;;6.70;100.00;99516.41;5005276;28;20112;-81
2023/03/28 00:54:52;;;;;;;46.03;42.65;;;;;;;7.41;100.00;99521.47;4998457;28;20050;-81
2023/03/28 00:57:19;;;;;;;45.45;42.15;;;;;;;6.17;100.00;99528.72;4999488;28;20046;-81
2023/03/28 00:59:47;;;;;;;47.78;44.63;;;;;;;6.04;100.00;99530.56;5000293;28;20116;-81
2023/03/28 01:02:14;;;;;;;48.53;45.33;;;;;;;6.31;100.00;99532.13;5001007;28;20053;-81
2023/03/28 01:04:48;;;;;;;45.95;42.83;;;;;;;5.81;100.00;99508.06;4995640;28;20054;-81
2023/03/28 01:07:17;;;;;;;49.40;46.00;;;;;;;6.97;100.00;99506.53;5000798;28;20058;-81
2023/03/28 01:09:44;;;;;;;43.97;41.08;;;;;;;7.05;100.00;99524.72;5001643;28;20038;-81
2023/03/28 01:12:12;;;;;;;42.75;40.35;;;;;;;6.46;100.00;99496.81;5006172;28;20107;-81
2023/03/28 01:14:39;;;;;;;40.35;38.03;;;;;;;5.78;100.00;99518.19;5005734;28;20107;-81
2023/03/28 01:17:07;;;;;;;44.28;41.45;;;;;;;5.84;100.00;99531.38;5008377;28;20171;-81
2023/03/28 01:19:49;;;;;;;45.67;43.08;;;;;;;6.71;100.00;99513.53;5002095;28;20520;-81
2023/03/28 01:22:53;;;;;;;39.30;37.10;;;;;;;6.03;100.00;99506.03;5009029;28;20085;-81
2023/03/28 01:25:55;;;;;;;43.33;41.08;;;;;;;5.95;100.00;99511.53;5001704;28;20045;-81
2023/03/28 01:28:41;;;;;;;39.13;36.95;;;;;;;6.91;100.00;99508.16;5006759;28;20046;-81
2023/03/28 01:31:25;;;;;;;45.35;43.03;;;;;;;6.64;100.00;99515.41;5000553;28;20050;-81
2023/03/28 01:34:21;;;;;;;34.78;32.67;;;;;;;5.67;100.00;99524.88;4994358;28;20069;-80
2023/03/28 01:37:05;;;;;;;35.03;32.83;;;;;;;6.50;100.00;99534.91;4988758;28;20148;-81
2023/03/28 01:39:50;;;;;;;40.92;38.63;;;;;;;5.66;100.00;99547.00;4983848;28;20054;-81
2023/03/28 01:42:28;;;;;;;41.47;38.83;;;;;;;6.62;100.00;99518.22;5004639;28;20061;-81
2023/03/28 01:45:07;;;;;;;45.70;43.30;;;;;;;7.19;100.00;99531.56;5006182;28;20561;-81
2023/03/28 01:47:39;;;;;;;32.05;30.48;;;;;;;6.03;100.00;99547.41;5004092;28;20103;-81
2023/03/28 01:50:17;;;;;;;31.40;29.83;;;;;;;5.07;100.00;99564.28;5002591;28;20050;-81
2023/03/28 01:52:54;;;;;;;35.78;33.88;;;;;;;5.15;100.00;99565.94;5006502;28;20054;-81
2023/03/28 01:55:26;;;;;;;39.97;37.67;;;;;;;5.22;100.00;99574.66;5006227;28;20113;-81
2023/03/28 01:58:02;;;;;;;36.47;34.55;;;;;;;5.60;100.00;99561.78;5007355;28;20107;-81
2023/03/28 02:00:33;;;;;;;30.73;29.02;;;;;;;5.20;100.00;99590.66;5003343;28;20049;-80
2023/03/28 02:03:05;;;;;;;35.40;33.40;;;;;;;5.82;100.00;99594.00;5007201;28;20054;-80
2023/03/28 02:05:34;;;;;;;31.90;30.40;;;;;;;5.69;100.00;99597.44;5001174;28;20058;-81
2023/03/28 02:08:08;;;;;;;35.28;33.58;;;;;;;5.62;100.00;99599.25;4998943;28;20057;-81
2023/03/28 02:10:40;;;;;;;37.97;35.85;;;;;;;5.60;100.00;99590.75;5003876;28;20077;-81
2023/03/28 02:13:11;;;;;;;40.75;38.42;;;;;;;5.83;100.00;99594.81;5004479;28;20114;-81
2023/03/28 02:15:39;;;;;;;38.00;36.15;;;;;;;5.60;100.00;99589.91;5007292;28;20116;-81
2023/03/28 02:18:12;;;;;;;35.08;33.28;;;;;;;5.61;100.00;99596.81;5002369;28;20069;-81
2023/03/28 02:20:42;;;;;;;31.95;30.38;;;;;;;4.90;100.00;99610.38;5006446;28;20073;-81
2023/03/28 02:23:15;;;;;;;43.00;40.65;;;;;;;5.72;100.00;99610.22;5009355;28;20050;-81
2023/03/28 02:25:42;;;;;;;41.25;39.15;;;;;;;5.21;100.00;99613.34;5001585;28;20099;-81
2023/03/28 02:28:10;;;;;;;33.22;31.52;;;;;;;4.90;100.00;99619.09;5006012;28;20112;-81
2023/03/28 02:30:38;;;;;;;36.30;33.67;;;;;;;5.99;100.00;99619.97;5003284;28;20046;-81
2023/03/28 02:33:08;;;;;;;36.20;34.30;;;;;;;4.94;100.00;99643.19;5004571;28;20046;-80
2023/03/28 02:35:46;;;;;;;36.67;34.58;;;;;;;4.53;100.00;99638.72;5005426;28;20570;-80
2023/03/28 02:38:22;;;;;;;39.58;37.22;;;;;;;5.78;100.00;99645.50;5002242;28;20469;-81
2023/03/28 02:40:57;;;;;;;39.42;37.22;;;;;;;5.05;100.00;99655.78;5004323;28;20085;-80
2023/03/28 02:43:43;;;;;;;36.60;33.10;;;;;;;4.94;100.00;99644.00;5005521;28;20054;-80
2023/03/28 02:46:20;;;;;;;32.75;30.75;;;;;;;5.78;100.00;99663.94;4993527;28;20515;-81
2023/03/28 02:49:10;;;;;;;32.03;29.70;;;;;;;4.46;100.00;99669.41;5004602;28;20479;-80
2023/03/28 02:51:41;;;;;;;30.92;29.13;;;;;;;4.56;100.00;99665.44;5004182;28;20117;-80
2023/03/28 02:54:25;;;;;;;37.38;35.20;;;;;;;4.49;100.00;99672.47;5000945;28;20110;-81
2023/03/28 02:57:01;;;;;;;37.05;35.13;;;;;;;4.88;100.00;99662.41;5003505;28;20050;-81
2023/03/28 02:59:33;;;;;;;34.30;32.30;;;;;;;4.93;100.00;99683.66;5004242;28;20119;-81
2023/03/28 03:02:01;;;;;;;;;;;;;;;5.01;100.00;99697.47;4999293;28;20089;-80
2023/03/28 03:04:28;;;;;;;32.40;30.40;;;;;;;4.76;100.00;99701.59;5005343;28;19921;-81
2023/03/28 03:06:55;;;;;;;31.33;29.42;;;;;;;4.78;100.00;99689.03;4997302;28;20050;-81
2023/03/28 03:09:25;;;;;;;35.33;33.50;;;;;;;4.91;100.00;99680.44;5002184;28;20107;-81
2023/03/28 03:11:52;;;;;;;30.60;28.92;;;;;;;5.40;100.00;99693.41;5004196;28;20046;-81
2023/03/28 03:14:19;;;;;;;35.50;33.40;;;;;;;4.22;100.00;99707.44;5001685;28;20050;-81
2023/03/28 03:16:47;;;;;;;39.33;36.88;;;;;;;5.11;100.00;99702.38;5006363;28;20060;-81
2023/03/28 03:19:14;;;;;;;40.97;38.35;;;;;;;4.54;100.00;99708.72;4995479;28;20093;-81
2023/03/28 03:21:41;;;;;;;42.25;39.95;;;;;;;5.25;100.00;99705.91;5003621;28;20474;-81
2023/03/28 03:24:09;;;;;;;31.58;29.65;;;;;;;4.57;100.00;99696.00;5017678;28;20073;-81
2023/03/28 03:26:37;;;;;;;37.05;34.05;;;;;;;4.51;100.00;99688.06;5017843;28;20054;-81
2023/03/28 03:29:04;;;;;;;42.17;38.00;;;;;;;5.28;100.00;99708.16;5012932;28;20645;-80
2023/03/28 03:31:31;;;;;;;44.33;40.00;;;;;;;4.51;100.00;99717.00;5018979;28;20070;-81
2023/03/28 03:33:58;;;;;;;28.70;26.30;;;;;;;4.52;100.00;99721.25;5015870;28;20069;-81
2023/03/28 03:36:48;;;;;;;30.55;27.75;;;;;;;4.35;100.00;99715.44;5014014;28;20442;-81
2023/03/28 03:39:15;;;;;;;37.00;34.08;;;;;;;4.52;100.00;99715.97;5002899;28;20073;-81
2023/03/28 03:41:43;;;;;;;38.78;35.97;;;;;;;4.37;100.00;99726.59;5013187;28;20050;-81
2023/03/28 03:44:10;;;;;;;29.27;26.77;;;;;;;4.54;100.00;99721.88;5020708;28;20054;-81
2023/03/28 03:46:37;;;;;;;29.88;27.48;;;;;;;4.51;100.00;99733.59;5021382;28;20574;-82
2023/03/28 03:49:03;;;;;;;29.50;26.77;;;;;;;4.48;100.00;99727.88;5016250;28;20109;-81
2023/03/28 03:51:39;;;;;;;34.45;32.45;;;;;;;4.22;100.00;99728.47;5018528;28;20077;-81
2023/03/28 03:54:06;;;;;;;34.97;32.78;;;;;;;4.65;100.00;99728.41;5014719;28;20492;-80
2023/03/28 03:56:33;;;;;;;35.10;33.10;;;;;;;4.34;100.00;99740.91;5002716;28;20105;-80
2023/03/28 03:59:01;;;;;;;34.63;32.65;;;;;;;4.50;100.00;99745.09;5000325;28;20042;-80
2023/03/28 04:01:29;;;;;;;31.13;29.10;;;;;;;4.91;100.00;99764.63;5001690;28;20524;-81
2023/03/28 04:03:56;;;;;;;24.42;22.92;;;;;;;5.01;100.00;99762.47;5001618;28;20426;-80
2023/03/28 04:06:23;;;;;;;28.85;27.15;;;;;;;6.02;100.00;99781.22;5000590;28;20050;-80
2023/03/28 04:08:51;;;;;;;24.05;22.35;;;;;;;4.86;100.00;99749.41;4999330;28;20494;-81
2023/03/28 04:11:18;;;;;;;26.50;24.90;;;;;;;4.14;100.00;99776.72;5003063;28;20046;-80
2023/03/28 04:13:44;;;;;;;30.10;28.10;;;;;;;4.41;100.00;99766.44;5001955;28;20054;-80
2023/03/28 04:16:14;;;;;;;28.23;26.42;;;;;;;4.37;100.00;99773.91;5003027;28;20100;-80
2023/03/28 04:18:49;;;;;;;25.75;24.05;;;;;;;5.00;100.00;99763.47;4998967;28;20499;-80
2023/03/28 04:21:17;;;;;;;27.25;24.98;;;;;;;4.93;100.00;99792.38;4986522;28;20060;-81
2023/03/28 04:23:47;;;;;;;30.52;28.52;;;;;;;5.89;100.00;99795.09;4989587;28;20054;-80
2023/03/28 04:27:00;;;;;;;22.92;21.40;;;;;;;4.56;100.00;99796.13;5002839;28;20400;-80
2023/03/28 04:29:30;;;;;;;24.13;22.52;;;;;;;4.38;100.00;99801.00;4989500;28;20042;-80
2023/03/28 04:31:59;;;;;;;26.65;24.85;;;;;;;5.31;100.00;99828.88;4992483;28;20054;-80
2023/03/28 04:34:28;;;;;;;25.45;23.52;;;;;;;3.78;100.00;99822.22;4988345;28;20120;-80
2023/03/28 04:37:00;;;;;;;26.27;24.58;;;;;;;5.25;100.00;99819.13;4981255;28;20065;-80
2023/03/28 04:39:27;;;;;;;26.20;24.35;;;;;;;5.13;100.00;99810.94;4992907;28;20049;-80
2023/03/28 04:41:54;;;;;;;22.48;20.98;;;;;;;5.19;100.00;99809.34;4984800;28;20110;-81
2023/03/28 04:44:21;;;;;;;26.85;25.05;;;;;;;6.00;100.00;99829.88;4982771;28;20101;-80
2023/03/28 04:46:49;;;;;;;23.15;21.55;;;;;;;4.23;100.00;99838.66;4982994;28;20046;-80
2023/03/28 04:49:18;;;;;;;24.38;22.83;;;;;;;4.74;100.00;99843.81;4985811;28;20054;-81
2023/03/28 04:51:44;;;;;;;25.88;23.70;;;;;;;4.46;100.00;99849.03;4986298;28;20055;-80
2023/03/28 04:54:11;;;;;;;27.05;25.25;;;;;;;4.86;100.00;99864.38;4982980;28;20047;-81
2023/03/28 04:56:38;;;;;;;24.88;22.85;;;;;;;4.89;100.00;99856.09;4986084;28;20051;-80
2023/03/28 04:59:05;;;;;;;23.70;22.00;;;;;;;5.13;100.00;99849.63;4989726;28;20102;-80
2023/03/28 05:01:33;;;;;;;21.52;20.17;;;;;;;4.98;100.00;99865.50;4979299;28;20138;-80
2023/03/28 05:04:00;;;;;;;24.02;22.42;;;;;;;4.75;100.00;99857.78;4984114;28;20046;-80
2023/03/28 05:06:28;;;;;;;26.73;24.83;;;;;;;4.86;100.00;99856.47;4981733;28;20043;-80
2023/03/28 05:08:56;;;;;;;24.08;22.52;;;;;;;3.79;100.00;99849.28;4983299;28;20065;-80
2023/03/28 05:11:23;;;;;;;26.90;24.60;;;;;;;4.78;100.00;99879.28;4983575;28;20500;-80
2023/03/28 05:13:50;;;;;;;22.13;20.67;;;;;;;3.86;100.00;99872.00;4984178;28;20047;-80
2023/03/28 05:16:17;;;;;;;24.23;22.02;;;;;;;4.38;100.00;99882.50;4981085;28;20073;-80
2023/03/28 05:18:44;;;;;;;23.98;22.38;;;;;;;4.50;100.00;99875.75;4988242;28;20046;-80
2023/03/28 05:21:11;;;;;;;23.40;21.90;;;;;;;4.57;100.00;99882.75;4986496;28;20074;-80
2023/03/28 05:23:39;;;;;;;22.88;21.48;;;;;;;4.26;100.00;99880.34;4984773;28;20501;-80
2023/03/28 05:26:07;;;;;;;26.63;23.77;;;;;;;5.10;100.00;99887.66;4982686;28;20090;-80
2023/03/28 05:29:01;;;;;;;24.80;23.10;;;;;;;3.85;100.00;99878.25;4979676;28;20050;-80
2023/03/28 05:31:29;;;;;;;23.10;21.60;;;;;;;4.71;100.00;99888.13;4976805;28;20538;-80
2023/03/28 05:33:56;;;;;;;24.58;22.88;;;;;;;4.34;100.00;99888.16;4978508;28;20428;-81
2023/03/28 05:36:23;;;;;;;22.30;20.90;;;;;;;4.31;100.00;99887.72;4984979;28;20058;-80
2023/03/28 05:38:51;;;;;;;22.25;20.27;;;;;;;4.75;100.00;99871.78;4981838;28;20109;-80
2023/03/28 05:41:18;;;;;;;22.08;20.77;;;;;;;4.63;100.00;99872.44;4984996;28;20127;-80
2023/03/28 05:43:44;;;;;;;25.35;23.80;;;;;;;4.89;100.00;99885.84;4981262;28;20121;-80
2023/03/28 05:46:11;;;;;;;27.13;25.42;;;;;;;6.02;100.00;99888.44;4981692;28;20100;-81
2023/03/28 05:48:38;;;;;;;27.10;25.38;;;;;;;5.04;100.00;99901.56;4983031;28;20059;-80
2023/03/28 05:51:05;;;;;;;26.10;23.98;;;;;;;6.42;100.00;99884.16;4979739;28;20097;-81
2023/03/28 05:53:32;;;;;;;24.48;22.77;;;;;;;5.21;100.00;99913.47;4980907;28;20054;-81
2023/03/28 05:56:00;;;;;;;21.80;20.40;;;;;;;5.38;100.00;99906.09;4980928;28;20471;-80
2023/03/28 05:58:26;;;;;;;21.90;20.30;;;;;;;5.20;100.00;99917.09;4987503;28;20050;-81
2023/03/28 06:00:53;;;;;;;23.70;22.10;;;;;;;3.85;100.00;99909.78;4978197;28;20570;-80
2023/03/28 06:03:21;;;;;;;24.23;22.63;;;;;;;4.42;100.00;99904.78;4980921;28;20059;-80
2023/03/28 06:05:51;;;;;;;26.10;24.55;;;;;;;4.91;100.00;99920.69;4986750;28;20054;-80
2023/03/28 06:08:17;;;;;;;28.67;26.52;;;;;;;4.73;100.00;99860.63;4999564;28;20051;-81
2023/03/28 06:10:44;;;;;;;25.23;23.85;;;;;;;5.77;100.00;99927.63;4997150;28;20050;-80
2023/03/28 06:13:12;;;;;;;23.67;22.15;;;;;;;6.03;100.00;99940.19;5003876;28;20047;-81
2023/03/28 06:15:39;;;;;;;24.00;22.45;;;;;;;4.66;100.00;99927.31;5000850;28;20496;-81
2023/03/28 06:18:06;;;;;;;23.95;22.55;;;;;;;5.33;100.00;99941.94;4997079;28;20093;-81
2023/03/28 06:20:32;;;;;;;24.30;21.90;;;;;;;5.14;100.00;99959.16;5001646;28;20043;-81
2023/03/28 06:22:59;;;;;;;23.92;22.17;;;;;;;5.54;100.00;99959.50;4999693;28;20058;-81
2023/03/28 06:25:26;;;;;;;23.20;21.50;;;;;;;5.16;100.00;99963.25;4997621;28;20435;-81
2023/03/28 06:27:53;;;;;;;21.88;20.38;;;;;;;5.42;100.00;99967.94;4998477;28;20041;-81
2023/03/28 06:30:21;;;;;;;22.20;20.40;;;;;;;4.71;100.00;99975.75;5003699;28;20045;-81
2023/03/28 06:32:48;;;;;;;23.00;21.63;;;;;;;7.38;100.00;99956.97;5000243;28;20078;-81
2023/03/28 06:35:15;;;;;;;22.00;20.50;;;;;;;4.63;100.00;99975.03;4996376;28;20050;-81
2023/03/28 06:37:41;;;;;;;20.95;19.75;;;;;;;4.20;100.00;99996.75;5002532;28;20043;-80
2023/03/28 06:40:09;;;;;;;20.98;19.67;;;;;;;5.16;100.00;99983.50;5002415;28;20031;-80
2023/03/28 06:42:36;;;;;;;22.00;20.55;;;;;;;6.15;100.00;99978.19;5002918;28;20598;-81
2023/03/28 06:45:03;;;;;;;23.00;21.05;;;;;;;4.66;100.00;100000.97;4992545;28;20144;-81
2023/03/28 06:47:31;;;;;;;21.15;19.50;;;;;;;4.71;100.00;100002.03;4996783;28;20081;-81
2023/03/28 06:49:58;;;;;;;21.65;19.85;;;;;;;4.52;100.00;100013.97;5000324;28;20054;-81
2023/03/28 06:52:25;;;;;;;25.67;23.65;;;;;;;5.31;100.00;100002.66;5003463;28;20043;-81
2023/03/28 06:54:51;;;;;;;21.60;20.08;;;;;;;4.63;100.00;100012.69;4998532;28;20078;-81
2023/03/28 06:57:18;;;;;;;21.25;19.83;;;;;;;5.94;100.00;100019.41;5000994;28;20070;-81
2023/03/28 06:59:45;;;;;;;23.45;21.85;;;;;;;6.69;100.00;100027.53;5003511;28;20047;-81
2023/03/28 07:02:12;;;;;;;24.30;22.65;;;;;;;4.89;100.00;100030.59;4996170;28;20054;-81
2023/03/28 07:04:40;;;;;;;22.80;21.10;;;;;;;4.41;100.00;100038.09;4997134;28;20043;-80
2023/03/28 07:07:25;;;;;;;22.35;20.92;;;;;;;5.51;100.00;100045.00;5008251;28;20088;-81
2023/03/28 07:09:53;;;;;;;25.15;23.40;;;;;;;5.41;100.00;100062.91;4997055;28;20046;-81
2023/03/28 07:12:20;;;;;;;21.77;20.38;;;;;;;4.90;100.00;100053.28;4999675;28;21318;-81
2023/03/28 07:14:47;;;;;;;21.65;19.95;;;;;;;5.23;100.00;100076.50;4996264;28;20074;-81
2023/03/28 07:17:14;;;;;;;20.30;18.90;;;;;;;4.93;100.00;100078.41;5003034;28;20076;-81
2023/03/28 07:19:43;;;;;;;20.60;19.27;;;;;;;4.00;100.00;100066.63;5015993;28;20039;-81
2023/03/28 07:22:10;;;;;;;20.27;19.17;;;;;;;5.10;100.00;100084.28;5015729;28;20074;-81
2023/03/28 07:24:37;;;;;;;21.63;20.25;;;;;;;4.40;100.00;100085.63;5023009;28;20062;-81
2023/03/28 07:27:04;;;;;;;23.38;21.85;;;;;;;5.04;100.00;100089.28;5013114;28;20054;-81
2023/03/28 07:29:31;;;;;;;20.83;19.42;;;;;;;4.58;100.00;100083.44;5022173;28;20046;-81
2023/03/28 07:31:57;;;;;;;20.77;19.35;;;;;;;5.35;100.00;100090.00;5020921;28;20614;-81
2023/03/28 07:34:24;;;;;;;20.45;19.25;;;;;;;4.56;100.00;100086.25;5021983;28;20082;-81
2023/03/28 07:36:52;;;;;;;21.75;20.23;;;;;;;4.74;100.00;100090.31;5013305;28;20049;-81
2023/03/28 07:39:19;;;;;;;21.63;20.13;;;;;;;6.48;100.00;100064.59;5022143;28;20053;-81
2023/03/28 07:41:46;;;;;;;21.27;19.58;;;;;;;5.41;100.00;100071.63;5028503;28;20038;-81
2023/03/28 07:44:12;;;;;;;21.15;19.45;;;;;;;5.70;100.00;100080.41;5023518;28;20050;-81
2023/03/28 07:46:39;;;;;;;21.20;19.60;;;;;;;5.80;100.00;100085.38;5025298;28;20041;-81
2023/03/28 07:49:07;;;;;;;20.55;19.00;;;;;;;5.23;100.00;100087.03;5012839;28;20042;-81
2023/03/28 07:51:34;;;;;;;22.27;20.88;;;;;;;7.26;100.00;100089.66;5017703;28;20046;-81
2023/03/28 07:54:03;;;;;;;20.70;19.20;;;;;;;6.07;100.00;100087.22;5020169;28;20050;-81
2023/03/28 07:56:30;;;;;;;21.35;19.58;;;;;;;6.28;100.00;100090.84;5017390;28;20146;-81
2023/03/28 07:58:57;;;;;;;21.08;19.60;;;;;;;6.93;100.00;100088.72;5017690;28;20566;-81
2023/03/28 08:01:25;;;;;;;20.52;19.23;;;;;;;7.56;100.00;100095.44;5025183;28;20072;-81
2023/03/28 08:03:51;;;;;;;21.45;19.85;;;;;;;7.57;100.00;100094.41;5020988;28;20078;-81
2023/03/28 08:06:18;;;;;;;21.45;20.10;;;;;;;6.84;100.00;100107.41;5017707;28;20046;-81
2023/03/28 08:08:45;;;;;;;20.83;19.23;;;;;;;7.28;100.00;100111.41;5017731;28;20054;-81
2023/03/28 08:11:13;;;;;;;22.88;21.15;;;;;;;7.86;100.00;100100.31;5019315;28;20046;-81
2023/03/28 08:13:40;;;;;;;20.58;19.30;;;;;;;8.41;100.00;100095.66;5023258;28;20054;-81
2023/03/28 08:16:08;;;;;;;19.02;17.70;;;;;;;6.70;100.00;100081.94;5022922;28;20051;-81
2023/03/28 08:18:35;;;;;;;19.80;18.55;;;;;;;8.22;100.00;100091.16;5022524;28;20522;-81
2023/03/28 08:21:03;;;;;;;22.27;20.58;;;;;;;7.33;100.00;100101.06;5019431;28;20046;-80
2023/03/28 08:23:30;;;;;;;20.98;19.67;;;;;;;9.02;100.00;100098.91;5011030;28;20077;-80
2023/03/28 08:26:03;;;;;;;20.40;18.90;;;;;;;7.80;100.00;100109.88;5021534;28;20046;-81
2023/03/28 08:28:32;;;;;;;19.90;18.50;;;;;;;7.86;100.00;100107.44;5023512;28;20106;-81
2023/03/28 08:30:59;;;;;;;20.00;18.33;;;;;;;7.66;100.00;100112.72;5017795;28;20426;-81
2023/03/28 08:33:27;;;;;;;19.75;18.35;;;;;;;7.38;100.00;100099.63;5000359;28;20055;-81
2023/03/28 08:35:55;;;;;;;20.45;19.10;;;;;;;7.92;100.00;100094.22;5016793;28;20065;-81
2023/03/28 08:38:22;;;;;;;20.85;19.45;;;;;;;7.26;100.00;100094.97;5016665;28;20065;-81
2023/03/28 08:40:58;;;;;;;19.58;18.20;;;;;;;8.62;100.00;100104.34;5020846;28;20042;-81
2023/03/28 08:43:54;;;;;;;19.77;18.10;;;;;;;7.92;100.00;100107.44;5023199;28;20425;-81
2023/03/28 08:46:24;;;;;;;21.88;20.20;;;;;;;7.96;100.00;100119.25;4998791;28;20050;-81
2023/03/28 08:48:53;;;;;;;21.90;20.30;;;;;;;8.22;100.00;100112.31;5022590;28;20050;-82
2023/03/28 08:51:26;;;;;;;22.23;20.65;;;;;;;8.14;100.00;100121.28;5016222;28;20047;-82
2023/03/28 08:54:02;;;;;;;21.75;20.15;;;;;;;8.65;100.00;100123.28;5015339;28;20054;-81
2023/03/28 08:56:31;;;;;;;23.05;21.45;;;;;;;9.49;100.00;100134.75;5023769;28;20042;-82
2023/03/28 08:59:05;;;;;;;23.02;21.20;;;;;;;8.79;100.00;100132.00;5017814;28;20058;-81
2023/03/28 09:01:33;;;;;;;22.30;20.75;;;;;;;9.32;100.00;100128.31;5012889;28;20120;-82
2023/03/28 09:04:00;;;;;;;22.60;21.00;;;;;;;8.72;100.00;100123.25;5021120;28;20050;-81
2023/03/28 09:06:30;;;;;;;20.48;19.17;;;;;;;8.30;100.00;100140.41;5016708;28;20056;-81
2023/03/28 09:09:16;;;;;;;20.98;19.63;;;;;;;9.75;100.00;100132.97;5022585;28;20056;-81
2023/03/28 09:11:54;;;;;;;19.67;18.35;;;;;;;9.82;100.00;100128.41;5024793;28;20054;-81
2023/03/28 09:14:47;;;;;;;19.50;18.20;;;;;;;10.57;100.00;100138.25;5016996;28;20069;-81
2023/03/28 09:17:23;;;;;;;20.63;19.05;;;;;;;10.28;100.00;100170.53;5017828;28;20054;-82
2023/03/28 09:20:05;;;;;;;21.05;19.13;;;;;;;9.10;100.00;100141.03;5020721;28;20049;-81
2023/03/28 09:22:40;;;;;;;20.65;19.02;;;;;;;9.03;100.00;100135.78;5021690;28;20487;-81
2023/03/28 09:25:21;;;;;;;23.13;20.98;;;;;;;8.30;100.00;100156.28;5018848;28;20042;-81
2023/03/28 09:27:59;;;;;;;20.70;18.95;;;;;;;8.19;100.00;100152.41;5020858;28;20139;-81
2023/03/28 09:30:31;;;;;;;21.77;19.73;;;;;;;8.06;100.00;100147.94;5023821;28;20043;-81
2023/03/28 09:33:00;;;;;;;19.85;18.42;;;;;;;8.69;100.00;100142.22;5027921;28;20045;-81
2023/03/28 09:35:30;;;;;;;19.70;18.05;;;;;;;8.29;100.00;100162.56;5022116;28;20047;-81
2023/03/28 09:38:01;;;;;;;19.83;18.42;;;;;;;7.91;100.00;100160.53;5021619;28;20058;-82
2023/03/28 09:40:30;;;;;;;19.83;18.30;;;;;;;8.34;100.00;100174.19;5025594;28;20048;-81
2023/03/28 09:43:06;;;;;;;21.58;19.85;;;;;;;8.64;100.00;100168.47;5025381;28;20526;-81
2023/03/28 09:45:53;;;;;;;19.70;18.50;;;;;;;9.05;100.00;100175.31;5017822;28;20074;-81
2023/03/28 09:48:25;;;;;;;19.33;18.23;;;;;;;9.77;100.00;100168.03;5022588;28;20038;-81
2023/03/28 09:50:52;;;;;;;20.67;19.25;;;;;;;9.46;100.00;100176.78;5016193;28;20046;-81
2023/03/28 09:53:25;;;;;;;42.50;19.92;;;;;;;8.66;100.00;100164.63;5022897;28;20085;-81
2023/03/28 09:55:52;;;;;;;;;;;;;;;8.53;100.00;100179.69;5016685;28;20049;-82
2023/03/28 09:58:19;;;;;;;19.10;17.33;;;;;;;8.63;100.00;100174.81;5019384;28;19921;-81
2023/03/28 10:00:50;;;;;;;20.13;18.63;;;;;;;9.71;100.00;100176.84;5016848;28;20050;-81
2023/03/28 10:03:21;;;;;;;19.77;17.80;;;;;;;9.54;100.00;100163.28;5023237;28;20054;-81
2023/03/28 10:05:49;;;;;;;20.73;18.75;;;;;;;8.31;100.00;100184.34;5019120;28;20058;-81
2023/03/28 10:08:25;;;;;;;18.55;17.25;;;;;;;8.20;100.00;100186.59;5027460;28;20106;-81
2023/03/28 10:11:05;;;;;;;19.05;17.75;;;;;;;8.16;100.00;100177.44;5025890;28;20043;-81
2023/03/28 10:13:40;;;;;;;19.80;18.45;;;;;;;7.56;100.00;100197.66;5024716;28;20046;-81
2023/03/28 10:16:11;;;;;;;21.65;19.95;;;;;;;7.84;100.00;100207.28;5027003;28;20050;-81
2023/03/28 10:18:40;;;;;;;21.48;19.73;;;;;;;8.47;100.00;100219.22;5025925;28;20045;-81
2023/03/28 10:21:13;;;;;;;21.27;20.08;;;;;;;8.39;100.00;100211.47;5022554;28;20110;-81
2023/03/28 10:23:41;;;;;;;21.70;20.40;;;;;;;8.86;100.00;100224.66;5027453;28;20046;-82
2023/03/28 10:26:11;;;;;;;24.15;22.75;;;;;;;7.86;100.00;100221.94;5020357;28;20050;-81
2023/03/28 10:28:38;;;;;;;24.73;22.98;;;;;;;7.39;100.00;100204.31;5026088;28;20076;-81
2023/03/28 10:31:06;;;;;;;23.05;21.50;;;;;;;7.73;100.00;100217.44;5022358;28;20046;-81
2023/03/28 10:33:36;;;;;;;24.10;22.17;;;;;;;7.73;100.00;100235.94;5022829;28;20097;-81
2023/03/28 10:36:05;;;;;;;24.70;22.93;;;;;;;7.99;100.00;100242.34;4651389;28;10000464;-81
2023/03/28 10:38:36;;;;;;;24.70;22.20;;;;;;;9.02;100.00;100241.97;5011872;28;20085;-81
2023/03/28 10:41:06;;;;;;;20.40;19.10;;;;;;;7.53;100.00;100241.19;5001250;28;20114;-81
2023/03/28 10:43:38;;;;;;;23.35;21.20;;;;;;;7.90;100.00;100259.41;5001619;28;20055;-82
2023/03/28 10:46:12;;;;;;;22.10;20.20;;;;;;;7.47;100.00;100262.28;5006856;28;20047;-81
2023/03/28 10:48:46;;;;;;;22.98;20.90;;;;;;;7.92;100.00;100255.50;5006648;28;20194;-81
2023/03/28 10:51:20;;;;;;;22.25;20.65;;;;;;;7.77;100.00;100260.97;5014673;28;20089;-81
2023/03/28 10:54:15;;;;;;;21.95;20.25;;;;;;;7.16;100.00;100266.19;5006335;28;20045;-81
2023/03/28 10:56:51;;;;;;;22.42;20.83;;;;;;;7.44;100.00;100271.41;5017592;28;20073;-81
2023/03/28 10:59:39;;;;;;;21.48;19.52;;;;;;;7.46;100.00;100260.66;5016702;28;20326;-81
2023/03/28 11:02:38;;;;;;;20.70;19.00;;;;;;;7.25;100.00;100269.47;5011353;28;20073;-81
2023/03/28 11:05:23;;;;;;;23.10;20.77;;;;;;;7.92;100.00;100279.31;4988042;28;20058;-81
2023/03/28 11:07:59;;;;;;;22.38;20.50;;;;;;;7.50;100.00;100288.31;5023335;28;20065;-81
2023/03/28 11:10:37;;;;;;;21.40;19.67;;;;;;;7.23;100.00;100288.19;5020663;28;20470;-81
2023/03/28 11:13:13;;;;;;;23.48;21.98;;;;;;;7.99;100.00;100279.38;5008416;28;20054;-81
2023/03/28 11:15:48;;;;;;;23.02;20.75;;;;;;;7.17;100.00;100281.03;5015254;28;20085;-81
2023/03/28 11:18:26;;;;;;;23.35;21.00;;;;;;;7.69;100.00;100292.88;5014629;28;20058;-81
2023/03/28 11:21:19;;;;;;;22.08;19.98;;;;;;;7.32;100.00;100280.88;5008930;28;20061;-82
2023/03/28 11:23:48;;;;;;;25.60;23.58;;;;;;;7.17;100.00;100273.13;5013287;28;20396;-81
2023/03/28 11:26:17;;;;;;;23.65;21.80;;;;;;;8.12;100.00;100273.28;5008610;28;20077;-81
2023/03/28 11:29:07;;;;;;;22.08;20.48;;;;;;;7.32;100.00;100278.25;5014957;28;20046;-81
2023/03/28 11:31:38;;;;;;;24.63;22.65;;;;;;;7.04;100.00;100287.03;5006979;28;20041;-82